createdAt,value
2022-12-04T00:01:28.988Z,100728.97
2022-12-04T00:04:00.128Z,100733.13
2022-12-04T00:06:28.827Z,100729.91
2022-12-04T00:08:57.845Z,100723.19
2022-12-04T00:11:29.749Z,100717.50
2022-12-04T00:14:06.094Z,100736.31
2022-12-04T00:16:35.844Z,100730.50
2022-12-04T00:19:04.303Z,100732.69
2022-12-04T00:21:32.420Z,100737.19
2022-12-04T00:24:00.252Z,100729.91
2022-12-04T00:26:31.139Z,100742.47
2022-12-04T00:28:59.203Z,100737.44
2022-12-04T00:31:29.732Z,100737.44
2022-12-04T00:33:58.531Z,100750.75
2022-12-04T00:36:29.514Z,100744.06
2022-12-04T00:38:58.719Z,100739.53
2022-12-04T00:41:28.963Z,100741.91
2022-12-04T00:43:56.601Z,100744.84
2022-12-04T00:46:24.566Z,100727.41
2022-12-04T00:48:52.865Z,100733.31
2022-12-04T00:51:25.146Z,100740.25
2022-12-04T00:53:53.259Z,100726.47
2022-12-04T00:56:25.970Z,100734.53
2022-12-04T00:58:56.820Z,100745.53
2022-12-04T01:01:26.445Z,100747.91
2022-12-04T01:03:55.433Z,100745.47
2022-12-04T01:06:33.950Z,100737.69
2022-12-04T01:09:04.627Z,100728.63
2022-12-04T01:11:33.928Z,100734.25
2022-12-04T01:14:02.006Z,100741.94
2022-12-04T01:16:36.949Z,100744.31
2022-12-04T01:19:07.747Z,100733.38
2022-12-04T01:21:37.475Z,100719.19
2022-12-04T01:24:05.874Z,100708.38
2022-12-04T01:26:33.792Z,100695.91
2022-12-04T01:29:01.838Z,100690.81
2022-12-04T01:31:30.249Z,100685.19
2022-12-04T01:33:58.500Z,100689.72
2022-12-04T01:36:28.865Z,100688.03
2022-12-04T01:38:56.674Z,100685.78
2022-12-04T01:41:30.874Z,100665.47
2022-12-04T01:44:11.576Z,100679.47
2022-12-04T01:46:41.877Z,100670.19
2022-12-04T01:49:37.543Z,100664.78
2022-12-04T01:52:21.586Z,100666.13
2022-12-04T01:54:59.613Z,100651.84
2022-12-04T01:57:32.488Z,100654.63
2022-12-04T02:00:07.695Z,100649.00
2022-12-04T02:02:41.330Z,100644.63
2022-12-04T02:05:13.363Z,100653.13
2022-12-04T02:07:45.282Z,100655.19
2022-12-04T02:10:14.023Z,100642.25
2022-12-04T02:13:09.101Z,100655.34
2022-12-04T02:16:06.305Z,100653.31
2022-12-04T02:19:38.231Z,100669.00
2022-12-04T02:22:28.504Z,100657.38
2022-12-04T02:25:24.475Z,100643.47
2022-12-04T02:28:23.927Z,100654.50
2022-12-04T02:30:59.238Z,100656.56
2022-12-04T02:33:37.270Z,100652.59
2022-12-04T02:36:20.930Z,100650.53
2022-12-04T02:39:02.721Z,100658.75
2022-12-04T02:41:44.249Z,100646.59
2022-12-04T02:44:28.041Z,100652.81
2022-12-04T02:47:05.696Z,100676.50
2022-12-04T02:49:45.666Z,100664.88
2022-12-04T02:52:21.301Z,100661.59
2022-12-04T02:54:57.723Z,100664.88
2022-12-04T02:57:32.548Z,100661.78
2022-12-04T03:00:01.565Z,100657.19
2022-12-04T03:02:53.483Z,100650.56
2022-12-04T03:05:52.398Z,100646.94
2022-12-04T03:08:27.925Z,100655.69
2022-12-04T03:11:00.808Z,100653.72
2022-12-04T03:13:57.467Z,100651.16
2022-12-04T03:16:43.901Z,100649.50
2022-12-04T03:19:19.909Z,100643.06
2022-12-04T03:21:58.089Z,100643.97
2022-12-04T03:24:27.821Z,100644.56
2022-12-04T03:27:05.082Z,100651.06
2022-12-04T03:30:01.731Z,100656.00
2022-12-04T03:32:38.431Z,100646.50
2022-12-04T03:35:49.824Z,100654.00
2022-12-04T03:38:42.101Z,100655.41
2022-12-04T03:41:38.085Z,100640.22
2022-12-04T03:44:41.319Z,100644.97
2022-12-04T03:47:29.414Z,100649.28
2022-12-04T03:50:21.564Z,100642.97
2022-12-04T03:53:14.204Z,100645.16
2022-12-04T03:55:54.621Z,100635.09
2022-12-04T03:58:30.927Z,100638.72
2022-12-04T04:01:00.304Z,100646.81
2022-12-04T04:03:44.992Z,100641.69
2022-12-04T04:06:25.467Z,100643.56
2022-12-04T04:09:01.289Z,100644.13
2022-12-04T04:11:40.525Z,100662.84
2022-12-04T04:14:31.877Z,100638.41
2022-12-04T04:17:24.353Z,100639.53
2022-12-04T04:20:26.490Z,100642.47
2022-12-04T04:23:16.980Z,100644.97
2022-12-04T04:25:47.406Z,100629.97
2022-12-04T04:28:40.325Z,100650.88
2022-12-04T04:31:17.455Z,100635.28
2022-12-04T04:34:13.782Z,100615.38
2022-12-04T04:36:53.648Z,100614.66
2022-12-04T04:39:48.899Z,100626.81
2022-12-04T04:42:30.015Z,100625.13
2022-12-04T04:45:08.996Z,100624.84
2022-12-04T04:47:52.695Z,100629.09
2022-12-04T04:50:21.784Z,100632.53
2022-12-04T04:53:03.858Z,100616.75
2022-12-04T04:55:34.623Z,100639.03
2022-12-04T04:58:13.681Z,100637.84
2022-12-04T05:01:03.400Z,100635.66
2022-12-04T05:03:32.646Z,100640.13
2022-12-04T05:06:00.389Z,100639.81
2022-12-04T05:08:28.671Z,100628.50
2022-12-04T05:10:56.585Z,100642.00
2022-12-04T05:13:25.070Z,100641.13
2022-12-04T05:16:06.016Z,100638.25
2022-12-04T05:18:35.344Z,100639.09
2022-12-04T05:21:19.394Z,100629.69
2022-12-04T05:23:47.209Z,100650.44
2022-12-04T05:26:14.652Z,100646.84
2022-12-04T05:28:42.524Z,100645.47
2022-12-04T05:31:10.214Z,100648.31
2022-12-04T05:33:38.171Z,100638.56
2022-12-04T05:36:09.702Z,100644.88
2022-12-04T05:38:38.039Z,100640.19
2022-12-04T05:41:07.114Z,100645.69
2022-12-04T05:43:35.605Z,100649.66
2022-12-04T05:46:08.865Z,100645.22
2022-12-04T05:48:37.101Z,100630.63
2022-12-04T05:51:10.566Z,100626.66
2022-12-04T05:53:39.232Z,100631.06
2022-12-04T05:56:08.023Z,100630.66
2022-12-04T05:58:37.469Z,100630.06
2022-12-04T06:01:19.332Z,100635.81
2022-12-04T06:03:47.309Z,100626.16
2022-12-04T06:06:23.259Z,100635.63
2022-12-04T06:08:55.065Z,100625.75
2022-12-04T06:11:26.704Z,100626.66
2022-12-04T06:13:55.150Z,100628.94
2022-12-04T06:16:26.733Z,100628.34
2022-12-04T06:19:01.675Z,100625.06
2022-12-04T06:21:32.242Z,100611.16
2022-12-04T06:24:00.236Z,100619.81
2022-12-04T06:26:28.131Z,100616.88
2022-12-04T06:28:58.840Z,100617.94
2022-12-04T06:31:29.812Z,100626.75
2022-12-04T06:33:58.977Z,100612.13
2022-12-04T06:36:26.659Z,100633.44
2022-12-04T06:38:56.910Z,100622.38
2022-12-04T06:41:26.606Z,100637.69
2022-12-04T06:43:55.278Z,100637.28
2022-12-04T06:46:30.416Z,100644.66
2022-12-04T06:49:00.537Z,100649.03
2022-12-04T06:51:35.655Z,100650.63
2022-12-04T06:54:04.495Z,100644.88
2022-12-04T06:56:33.932Z,100651.16
2022-12-04T06:59:04.030Z,100636.13
2022-12-04T07:01:34.436Z,100634.94
2022-12-04T07:04:04.444Z,100643.41
2022-12-04T07:06:38.944Z,100647.97
2022-12-04T07:09:17.374Z,100638.09
2022-12-04T07:11:46.158Z,100648.03
2022-12-04T07:14:14.808Z,100652.19
2022-12-04T07:16:43.004Z,100654.41
2022-12-04T07:19:13.894Z,100647.44
2022-12-04T07:21:43.173Z,100657.22
2022-12-04T07:24:16.918Z,100673.38
2022-12-04T07:26:45.229Z,100671.69
2022-12-04T07:29:13.542Z,100665.72
2022-12-04T07:31:41.388Z,100678.00
2022-12-04T07:34:09.369Z,100667.31
2022-12-04T07:36:37.023Z,100674.56
2022-12-04T07:39:04.957Z,100670.22
2022-12-04T07:41:32.705Z,100656.75
2022-12-04T07:44:07.326Z,100650.50
2022-12-04T07:46:35.792Z,100659.19
2022-12-04T07:49:03.750Z,100660.25
2022-12-04T07:51:31.408Z,100669.13
2022-12-04T07:54:03.225Z,100670.69
2022-12-04T07:56:33.495Z,100674.47
2022-12-04T07:59:02.458Z,100681.34
2022-12-04T08:01:31.198Z,100656.25
2022-12-04T08:04:01.112Z,100659.72
2022-12-04T08:06:32.391Z,100665.75
2022-12-04T08:09:04.799Z,100671.59
2022-12-04T08:11:35.725Z,100669.25
2022-12-04T08:14:06.187Z,100672.25
2022-12-04T08:16:34.143Z,100663.00
2022-12-04T08:19:02.200Z,100666.97
2022-12-04T08:21:32.015Z,100652.97
2022-12-04T08:24:01.980Z,100648.28
2022-12-04T08:26:31.690Z,100653.13
2022-12-04T08:29:03.950Z,100638.53
2022-12-04T08:31:34.669Z,100637.13
2022-12-04T08:34:06.394Z,100626.25
2022-12-04T08:36:35.212Z,100628.13
2022-12-04T08:39:03.789Z,100635.38
2022-12-04T08:41:31.466Z,100622.63
2022-12-04T08:43:59.696Z,100614.78
2022-12-04T08:46:28.966Z,100639.91
2022-12-04T08:48:56.857Z,100617.16
2022-12-04T08:51:29.528Z,100609.13
2022-12-04T08:54:05.445Z,100619.66
2022-12-04T08:56:34.723Z,100610.72
2022-12-04T08:59:02.962Z,100621.69
2022-12-04T09:01:31.771Z,100608.00
2022-12-04T09:04:00.908Z,100598.09
2022-12-04T09:06:29.841Z,100601.56
2022-12-04T09:08:58.174Z,100601.25
2022-12-04T09:11:28.408Z,100600.81
2022-12-04T09:13:56.492Z,100596.06
2022-12-04T09:16:25.863Z,100603.47
2022-12-04T09:18:55.709Z,100596.06
2022-12-04T09:21:25.119Z,100584.00
2022-12-04T09:23:52.973Z,100579.41
2022-12-04T09:26:33.136Z,100569.50
2022-12-04T09:29:04.124Z,100575.66
2022-12-04T09:31:33.139Z,100558.97
2022-12-04T09:34:02.142Z,100557.41
2022-12-04T09:36:30.498Z,100563.06
2022-12-04T09:38:58.987Z,100564.31
2022-12-04T09:41:36.419Z,100554.53
2022-12-04T09:44:11.162Z,100573.72
2022-12-04T09:46:51.376Z,100562.25
2022-12-04T09:49:45.718Z,100552.16
2022-12-04T09:52:56.262Z,100556.88
2022-12-04T09:55:47.655Z,100558.91
2022-12-04T09:58:28.586Z,100551.00
2022-12-04T10:00:58.670Z,100523.13
2022-12-04T10:03:30.564Z,100505.31
2022-12-04T10:06:27.087Z,100518.69
2022-12-04T10:09:26.674Z,100499.41
2022-12-04T10:12:18.389Z,100490.41
2022-12-04T10:15:22.313Z,100519.25
2022-12-04T10:17:59.639Z,100507.72
2022-12-04T10:20:52.115Z,100489.31
2022-12-04T10:23:41.499Z,100489.25
2022-12-04T10:26:20.342Z,100474.56
2022-12-04T10:29:14.724Z,100490.38
2022-12-04T10:31:46.703Z,100489.72
2022-12-04T10:34:26.634Z,100494.31
2022-12-04T10:36:58.863Z,100493.72
2022-12-04T10:39:36.727Z,100487.00
2022-12-04T10:42:19.444Z,100479.69
2022-12-04T10:44:47.789Z,100482.41
2022-12-04T10:47:15.591Z,100481.47
2022-12-04T10:49:43.969Z,100463.56
2022-12-04T10:52:15.342Z,100485.00
2022-12-04T10:54:57.944Z,100460.44
2022-12-04T10:57:42.099Z,100475.41
2022-12-04T11:00:36.014Z,100475.72
2022-12-04T11:03:22.634Z,100463.38
2022-12-04T11:06:01.866Z,100470.56
2022-12-04T11:08:49.479Z,100469.94
2022-12-04T11:11:31.499Z,100468.16
2022-12-04T11:14:28.824Z,100480.56
2022-12-04T11:17:06.571Z,100492.34
2022-12-04T11:19:36.518Z,100485.41
2022-12-04T11:22:14.800Z,100492.75
2022-12-04T11:24:49.487Z,100498.63
2022-12-04T11:27:29.245Z,100471.69
2022-12-04T11:29:58.473Z,100495.31
2022-12-04T11:32:32.073Z,100497.53
2022-12-04T11:35:14.500Z,100489.69
2022-12-04T11:37:45.445Z,100477.94
2022-12-04T11:40:20.120Z,100486.31
2022-12-04T11:43:12.472Z,100494.53
2022-12-04T11:45:40.638Z,100483.50
2022-12-04T11:48:18.335Z,100482.72
2022-12-04T11:51:23.849Z,100495.97
2022-12-04T11:54:09.574Z,100496.13
2022-12-04T11:56:58.698Z,100488.56
2022-12-04T11:59:47.582Z,100487.03
2022-12-04T12:02:42.047Z,100502.00
2022-12-04T12:05:32.313Z,100489.13
2022-12-04T12:08:38.495Z,100504.53
2022-12-04T12:11:32.059Z,100501.56
2022-12-04T12:14:25.107Z,100494.50
2022-12-04T12:17:24.400Z,100517.53
2022-12-04T12:20:04.884Z,100521.63
2022-12-04T12:22:57.067Z,100533.47
2022-12-04T12:25:52.354Z,100546.41
2022-12-04T12:28:52.686Z,100543.56
2022-12-04T12:32:16.707Z,100544.19
2022-12-04T12:34:46.547Z,100564.16
2022-12-04T12:37:44.271Z,100566.38
2022-12-04T12:40:27.366Z,100558.50
2022-12-04T12:43:11.247Z,100553.16
2022-12-04T12:45:59.012Z,100555.84
2022-12-04T12:48:38.930Z,100557.88
2022-12-04T12:51:47.658Z,100571.25
2022-12-04T12:54:57.373Z,100567.16
2022-12-04T12:57:46.606Z,100564.66
2022-12-04T13:00:18.744Z,100569.50
2022-12-04T13:03:35.868Z,100561.03
2022-12-04T13:06:15.410Z,100562.75
2022-12-04T13:09:16.918Z,100561.19
2022-12-04T13:11:49.131Z,100558.97
2022-12-04T13:14:17.627Z,100560.25
2022-12-04T13:16:54.224Z,100557.72
2022-12-04T13:19:44.446Z,100571.25
2022-12-04T13:22:46.998Z,100573.13
2022-12-04T13:25:44.611Z,100561.47
2022-12-04T13:28:31.597Z,100559.31
2022-12-04T13:31:45.488Z,100552.22
2022-12-04T13:34:23.795Z,100552.84
2022-12-04T13:37:05.238Z,100564.34
2022-12-04T13:40:20.501Z,100541.81
2022-12-04T13:42:49.370Z,100534.56
2022-12-04T13:45:46.531Z,100547.59
2022-12-04T13:48:26.414Z,100558.91
2022-12-04T13:51:21.390Z,100561.28
2022-12-04T13:54:03.738Z,100568.38
2022-12-04T13:56:31.823Z,100561.44
2022-12-04T13:59:32.575Z,100569.31
2022-12-04T14:02:35.361Z,100575.31
2022-12-04T14:05:12.027Z,100565.38
2022-12-04T14:07:44.566Z,100562.53
2022-12-04T14:10:15.117Z,100565.84
2022-12-04T14:12:50.134Z,100565.22
2022-12-04T14:15:31.420Z,100570.09
2022-12-04T14:18:17.728Z,100565.06
2022-12-04T14:20:56.838Z,100563.66
2022-12-04T14:23:41.828Z,100560.50
2022-12-04T14:27:10.154Z,100563.16
2022-12-04T14:29:30.139Z,100564.25
2022-12-04T14:32:10.437Z,100539.25
2022-12-04T14:34:38.705Z,100556.06
2022-12-04T14:37:17.528Z,100554.16
2022-12-04T14:39:47.035Z,100549.16
2022-12-04T14:42:17.686Z,100545.72
2022-12-04T14:44:51.282Z,100555.81
2022-12-04T14:48:08.515Z,100561.66
2022-12-04T14:50:54.025Z,100562.44
2022-12-04T14:54:36.391Z,100560.56
2022-12-04T14:57:42.264Z,100552.38
2022-12-04T15:00:22.920Z,100566.22
2022-12-04T15:02:58.666Z,100571.25
2022-12-04T15:05:32.329Z,100565.91
2022-12-04T15:08:05.275Z,100574.38
2022-12-04T15:10:53.611Z,100569.50
2022-12-04T15:13:33.743Z,100569.66
2022-12-04T15:16:18.106Z,100573.56
2022-12-04T15:19:00.868Z,100578.91
2022-12-04T15:21:40.660Z,100592.59
2022-12-04T15:24:19.590Z,100583.47
2022-12-04T15:27:32.694Z,100593.81
2022-12-04T15:30:03.348Z,100598.53
2022-12-04T15:32:32.616Z,100597.44
2022-12-04T15:35:09.304Z,100606.88
2022-12-04T15:37:37.849Z,100599.97
2022-12-04T15:40:18.725Z,100601.38
2022-12-04T15:42:46.846Z,100607.03
2022-12-04T15:45:14.321Z,100599.94
2022-12-04T15:47:42.117Z,100607.34
2022-12-04T15:50:31.375Z,100590.38
2022-12-04T15:53:01.921Z,100594.91
2022-12-04T15:55:39.870Z,100610.78
2022-12-04T15:58:31.739Z,100604.59
2022-12-04T16:01:12.009Z,100608.06
2022-12-04T16:03:43.125Z,100619.50
2022-12-04T16:06:32.457Z,100624.81
2022-12-04T16:09:18.162Z,100622.75
2022-12-04T16:11:46.550Z,100636.09
2022-12-04T16:14:18.979Z,100638.47
2022-12-04T16:16:50.563Z,100638.63
2022-12-04T16:19:29.026Z,100636.66
2022-12-04T16:21:56.992Z,100628.81
2022-12-04T16:24:25.767Z,100637.00
2022-12-04T16:26:55.564Z,100642.81
2022-12-04T16:29:24.784Z,100634.34
2022-12-04T16:31:52.639Z,100632.13
2022-12-04T16:34:21.286Z,100649.56
2022-12-04T16:36:48.898Z,100639.81
2022-12-04T16:39:16.850Z,100633.84
2022-12-04T16:41:44.451Z,100649.84
2022-12-04T16:44:16.926Z,100645.78
2022-12-04T16:46:45.285Z,100632.75
2022-12-04T16:49:13.812Z,100652.88
2022-12-04T16:51:51.238Z,100657.22
2022-12-04T16:54:19.778Z,100653.13
2022-12-04T16:56:47.726Z,100654.38
2022-12-04T16:59:15.757Z,100641.53
2022-12-04T17:01:49.487Z,100659.13
2022-12-04T17:04:18.560Z,100649.06
2022-12-04T17:06:46.759Z,100641.03
2022-12-04T17:09:16.483Z,100647.50
2022-12-04T17:11:44.856Z,100651.06
2022-12-04T17:14:13.119Z,100659.22
2022-12-04T17:16:44.025Z,100650.56
2022-12-04T17:19:12.993Z,100656.50
2022-12-04T17:21:41.681Z,100654.31
2022-12-04T17:24:09.719Z,100654.06
2022-12-04T17:26:37.439Z,100654.66
2022-12-04T17:29:05.450Z,100652.00
2022-12-04T17:31:33.168Z,100665.84
2022-12-04T17:34:01.176Z,100662.97
2022-12-04T17:36:28.871Z,100672.69
2022-12-04T17:38:59.557Z,100671.25
2022-12-04T17:41:27.758Z,100677.38
2022-12-04T17:43:55.618Z,100680.53
2022-12-04T17:46:24.700Z,100690.47
2022-12-04T17:48:52.551Z,100696.28
2022-12-04T17:51:23.474Z,100688.16
2022-12-04T17:53:52.313Z,100683.28
2022-12-04T17:56:23.216Z,100690.53
2022-12-04T17:58:51.779Z,100687.38
2022-12-04T18:01:23.219Z,100694.22
2022-12-04T18:04:00.480Z,100693.88
2022-12-04T18:06:32.703Z,100702.38
2022-12-04T18:09:02.121Z,100701.75
2022-12-04T18:11:32.549Z,100710.50
2022-12-04T18:14:11.742Z,100706.34
2022-12-04T18:16:44.921Z,100709.66
2022-12-04T18:19:14.600Z,100713.41
2022-12-04T18:21:42.307Z,100715.63
2022-12-04T18:24:10.536Z,100711.47
2022-12-04T18:26:41.988Z,100715.59
2022-12-04T18:29:13.889Z,100730.09
2022-12-04T18:31:42.236Z,100725.53
2022-12-04T18:34:11.739Z,100726.31
2022-12-04T18:36:42.198Z,100731.34
2022-12-04T18:39:16.355Z,100726.84
2022-12-04T18:41:44.393Z,100746.69
2022-12-04T18:44:13.122Z,100735.41
2022-12-04T18:46:41.546Z,100725.22
2022-12-04T18:49:11.060Z,100741.72
2022-12-04T18:51:50.129Z,100730.41
2022-12-04T18:54:22.449Z,100737.34
2022-12-04T18:56:50.633Z,100742.00
2022-12-04T18:59:25.685Z,100747.31
2022-12-04T19:01:54.247Z,100740.28
2022-12-04T19:04:24.875Z,100739.47
2022-12-04T19:06:56.132Z,100757.53
2022-12-04T19:10:08.915Z,100749.81
2022-12-04T19:12:17.198Z,100758.13
2022-12-04T19:14:45.164Z,100755.78
2022-12-04T19:17:13.326Z,100760.94
2022-12-04T19:19:41.609Z,100758.56
2022-12-04T19:22:09.553Z,100755.13
2022-12-04T19:24:37.581Z,100757.66
2022-12-04T19:27:11.222Z,100764.94
2022-12-04T19:29:43.020Z,100768.16
2022-12-04T19:32:11.613Z,100757.34
2022-12-04T19:34:40.239Z,100767.69
2022-12-04T19:37:08.331Z,100773.50
2022-12-04T19:39:36.696Z,100775.91
2022-12-04T19:42:04.675Z,100787.56
2022-12-04T19:44:48.518Z,100785.97
2022-12-04T19:47:17.961Z,100785.97
2022-12-04T19:49:46.657Z,100798.59
2022-12-04T19:52:14.847Z,100798.63
2022-12-04T19:54:42.843Z,100795.16
2022-12-04T19:57:10.614Z,100794.19
2022-12-04T19:59:43.095Z,100803.47
2022-12-04T20:02:14.427Z,100797.94
2022-12-04T20:04:43.296Z,100808.94
2022-12-04T20:07:11.075Z,100807.34
2022-12-04T20:09:39.022Z,100798.88
2022-12-04T20:12:07.131Z,100796.34
2022-12-04T20:14:35.224Z,100812.97
2022-12-04T20:17:04.111Z,100804.63
2022-12-04T20:19:32.533Z,100810.09
2022-12-04T20:22:00.244Z,100816.22
2022-12-04T20:24:28.479Z,100815.44
2022-12-04T20:26:56.107Z,100817.19
2022-12-04T20:29:24.213Z,100811.69
2022-12-04T20:31:51.777Z,100817.19
2022-12-04T20:34:19.983Z,100813.84
2022-12-04T20:36:49.297Z,100812.41
2022-12-04T20:39:36.053Z,100818.84
2022-12-04T20:42:03.851Z,100814.59
2022-12-04T20:44:31.861Z,100817.75
2022-12-04T20:46:59.458Z,100840.69
2022-12-04T20:49:27.349Z,100829.09
2022-12-04T20:51:54.930Z,100838.06
2022-12-04T20:54:23.436Z,100831.47
2022-12-04T20:56:54.082Z,100826.56
2022-12-04T20:59:25.273Z,100831.84
2022-12-04T21:01:53.210Z,100828.38
2022-12-04T21:04:22.038Z,100824.78
2022-12-04T21:06:50.330Z,100835.97
2022-12-04T21:09:22.396Z,100831.84
2022-12-04T21:11:55.886Z,100839.84
2022-12-04T21:14:46.891Z,100843.00
2022-12-04T21:17:20.764Z,100849.88
2022-12-04T21:19:51.288Z,100839.16
2022-12-04T21:22:20.030Z,100846.16
2022-12-04T21:24:47.980Z,100847.44
2022-12-04T21:27:20.649Z,100855.03
2022-12-04T21:29:49.793Z,100851.97
2022-12-04T21:32:19.340Z,100863.09
2022-12-04T21:34:47.802Z,100857.69
2022-12-04T21:37:15.575Z,100857.31
2022-12-04T21:39:43.954Z,100861.03
2022-12-04T21:42:30.072Z,100860.66
2022-12-04T21:45:02.574Z,100868.66
2022-12-04T21:47:31.886Z,100854.84
2022-12-04T21:50:00.241Z,100867.09
2022-12-04T21:52:28.132Z,100862.25
2022-12-04T21:54:56.517Z,100869.16
2022-12-04T21:57:24.350Z,100861.78
2022-12-04T21:59:52.750Z,100862.97
2022-12-04T22:02:21.424Z,100859.50
2022-12-04T22:04:49.714Z,100857.44
2022-12-04T22:07:17.706Z,100862.78
2022-12-04T22:09:47.345Z,100854.59
2022-12-04T22:12:41.183Z,100868.81
2022-12-04T22:15:04.101Z,100863.78
2022-12-04T22:17:31.736Z,100863.88
2022-12-04T22:19:59.992Z,100856.78
2022-12-04T22:22:27.674Z,100851.94
2022-12-04T22:24:56.398Z,100859.03
2022-12-04T22:27:24.080Z,100852.63
2022-12-04T22:29:52.489Z,100850.53
2022-12-04T22:32:20.331Z,100848.78
2022-12-04T22:34:49.416Z,100837.91
2022-12-04T22:37:17.297Z,100845.72
2022-12-04T22:39:45.369Z,100838.81
2022-12-04T22:42:13.734Z,100832.50
2022-12-04T22:44:41.901Z,100834.38
2022-12-04T22:47:09.766Z,100837.34
2022-12-04T22:49:38.170Z,100830.63
2022-12-04T22:52:05.972Z,100841.88
2022-12-04T22:54:34.145Z,100840.56
2022-12-04T22:57:02.007Z,100821.72
2022-12-04T22:59:30.383Z,100824.56
2022-12-04T23:02:00.173Z,100824.47
2022-12-04T23:04:28.689Z,100828.41
2022-12-04T23:06:56.388Z,100828.91
2022-12-04T23:09:26.285Z,100830.91
2022-12-04T23:11:55.500Z,100825.09
2022-12-04T23:14:23.707Z,100838.72
2022-12-04T23:16:51.773Z,100844.25
2022-12-04T23:19:20.274Z,100847.63
2022-12-04T23:21:55.146Z,100843.56
2022-12-04T23:24:26.208Z,100844.06
2022-12-04T23:26:53.975Z,100841.88
2022-12-04T23:29:52.781Z,100835.34
2022-12-04T23:32:09.773Z,100846.53
2022-12-04T23:34:38.380Z,100829.13
2022-12-04T23:37:06.055Z,100829.91
2022-12-04T23:39:34.014Z,100831.97
2022-12-04T23:42:01.781Z,100829.00
2022-12-04T23:44:29.851Z,100829.78
2022-12-04T23:46:57.436Z,100821.78
2022-12-04T23:49:25.913Z,100825.38
2022-12-04T23:51:53.687Z,100824.91
2022-12-04T23:54:21.627Z,100832.19
2022-12-04T23:56:49.331Z,100834.97
2022-12-04T23:59:17.235Z,100830.50
